Time;durP1;ratioP1;P1;durP2;ratioP2;P2;SDS_P1;SDS_P2;PMS_P1;PMS_P2;Temp;Humidity;BMP_temperature;BMP_pressure;BME280_temperature;BME280_humidity;BME280_pressure;Samples;Min_cycle;Max_cycle;Signal;HPM_P1;HPM_P2
2022/07/13 00:00:32;;;;;;;1.98;1.20;;;;;;;19.28;64.63;96841.03;5026787;28;20222;-78
2022/07/13 00:03:00;;;;;;;1.90;1.40;;;;;;;19.33;64.27;96843.75;5028320;28;20214;-78
2022/07/13 00:05:26;;;;;;;1.50;1.20;;;;;;;19.38;63.79;96841.03;5014143;28;20215;-78
2022/07/13 00:07:54;;;;;;;1.40;1.30;;;;;;;19.48;62.78;96841.03;5045926;28;20298;-78
2022/07/13 00:10:21;;;;;;;5.00;1.27;;;;;;;19.50;62.63;96838.03;5028309;28;20218;-78
2022/07/13 00:12:49;;;;;;;1.60;1.30;;;;;;;19.51;62.81;96843.25;5048331;28;20211;-78
2022/07/13 00:15:16;;;;;;;2.70;1.30;;;;;;;19.58;62.53;96843.78;5031300;28;20210;-78
2022/07/13 00:17:43;;;;;;;1.98;1.20;;;;;;;19.58;63.80;96843.78;5017970;28;20219;-78
2022/07/13 00:20:11;;;;;;;1.23;1.13;;;;;;;19.67;64.08;96849.53;5025290;28;20222;-78
2022/07/13 00:22:39;;;;;;;1.50;1.20;;;;;;;19.55;65.12;96843.53;5056410;28;20264;-78
2022/07/13 00:25:07;;;;;;;2.45;1.17;;;;;;;19.54;64.81;96855.56;5020129;28;20229;-78
2022/07/13 00:27:34;;;;;;;1.40;1.30;;;;;;;19.49;65.94;96859.13;5024486;28;20307;-78
2022/07/13 00:30:03;;;;;;;1.40;1.17;;;;;;;19.50;67.27;96860.78;5018937;28;20215;-78
2022/07/13 00:32:31;;;;;;;1.80;1.20;;;;;;;19.44;67.58;96855.53;5023846;28;20290;-78
2022/07/13 00:34:58;;;;;;;1.17;1.08;;;;;;;19.36;68.58;96854.19;5047555;28;20204;-78
2022/07/13 00:37:25;;;;;;;1.45;1.35;;;;;;;19.30;68.03;96859.94;5017376;28;20242;-78
2022/07/13 00:39:52;;;;;;;1.40;1.30;;;;;;;19.22;67.99;96864.81;5009886;28;20234;-78
2022/07/13 00:42:19;;;;;;;2.50;1.00;;;;;;;19.17;69.44;96864.84;5024738;28;20210;-78
2022/07/13 00:44:46;;;;;;;2.47;1.20;;;;;;;19.10;70.11;96858.00;5011349;28;20208;-78
2022/07/13 00:47:15;;;;;;;2.58;1.27;;;;;;;19.05;69.79;96860.72;5019879;28;20202;-78
2022/07/13 00:49:43;;;;;;;1.73;1.20;;;;;;;19.00;69.75;96856.06;5021704;28;20203;-78
2022/07/13 00:52:10;;;;;;;1.73;1.17;;;;;;;18.93;70.95;96849.19;5024280;28;20230;-78
2022/07/13 00:54:40;;;;;;;2.10;1.20;;;;;;;18.86;70.53;96850.28;5047250;28;20211;-78
2022/07/13 00:57:10;;;;;;;1.50;1.20;;;;;;;18.90;70.21;96856.84;5022319;28;20235;-78
2022/07/13 00:59:37;;;;;;;1.63;1.40;;;;;;;18.75;69.37;96845.06;5046489;28;20315;-78
2022/07/13 01:02:04;;;;;;;1.80;1.17;;;;;;;18.69;70.79;96844.22;5018208;28;20210;-78
2022/07/13 01:04:33;;;;;;;2.35;1.30;;;;;;;18.61;70.66;96843.94;5015942;28;20211;-78
2022/07/13 01:07:01;;;;;;;1.30;1.20;;;;;;;18.56;71.75;96841.97;5027154;28;20203;-78
2022/07/13 01:09:28;;;;;;;0.90;0.90;;;;;;;18.50;72.16;96840.31;5025249;28;20192;-78
2022/07/13 01:11:55;;;;;;;1.20;1.10;;;;;;;18.50;72.70;96834.84;5013267;28;20210;-78
2022/07/13 01:14:24;;;;;;;2.28;1.10;;;;;;;18.48;71.09;96832.38;5011184;28;20218;-78
2022/07/13 01:16:51;;;;;;;1.20;1.10;;;;;;;18.40;70.01;96824.69;5019607;28;20214;-78
2022/07/13 01:19:19;;;;;;;1.57;1.20;;;;;;;18.43;71.22;96829.63;5019934;28;20295;-78
2022/07/13 01:21:52;;;;;;;2.00;1.30;;;;;;;18.45;70.89;96830.19;5026520;28;20215;-78
2022/07/13 01:24:21;;;;;;;1.30;1.20;;;;;;;18.47;72.51;96830.72;5046658;28;20196;-78
2022/07/13 01:26:50;;;;;;;1.80;1.20;;;;;;;18.45;70.71;96832.09;5029172;28;20254;-78
2022/07/13 01:29:17;;;;;;;3.03;1.20;;;;;;;18.44;70.56;96833.19;5017917;28;20203;-78
2022/07/13 01:31:44;;;;;;;1.40;1.03;;;;;;;18.34;71.20;96833.16;5036019;28;20212;-78
2022/07/13 01:34:11;;;;;;;2.40;1.20;;;;;;;18.27;70.89;96832.56;5024612;28;20203;-78
2022/07/13 01:36:40;;;;;;;2.33;1.20;;;;;;;18.25;71.64;96834.75;5010198;28;20208;-78
2022/07/13 01:39:07;;;;;;;1.30;1.07;;;;;;;18.21;72.00;96830.88;5020067;28;20242;-78
2022/07/13 01:41:36;;;;;;;1.47;1.20;;;;;;;18.23;72.08;96823.25;5031371;28;20212;-78
2022/07/13 01:44:03;;;;;;;1.33;1.10;;;;;;;18.27;72.45;96832.56;5017816;28;20203;-78
2022/07/13 01:46:30;;;;;;;1.40;1.20;;;;;;;18.18;72.73;96826.81;5021620;28;20291;-78
2022/07/13 01:48:59;;;;;;;2.17;1.17;;;;;;;18.11;72.73;96829.78;5053431;28;20285;-78
2022/07/13 01:51:26;;;;;;;1.27;1.17;;;;;;;18.19;73.12;96838.56;5022835;28;20257;-78
2022/07/13 01:53:53;;;;;;;1.20;1.10;;;;;;;18.07;71.61;96839.59;5049472;28;20203;-78
2022/07/13 01:56:21;;;;;;;1.30;1.20;;;;;;;17.92;71.32;96834.06;5015342;28;20227;-78
2022/07/13 01:58:50;;;;;;;1.37;1.20;;;;;;;17.88;71.58;96838.38;5021687;28;20291;-78
2022/07/13 02:01:17;;;;;;;1.27;1.17;;;;;;;17.84;70.09;96842.75;5028011;28;20337;-78
2022/07/13 02:03:46;;;;;;;2.50;1.10;;;;;;;17.73;70.56;96835.56;5032579;28;20270;-78
2022/07/13 02:06:13;;;;;;;1.10;1.00;;;;;;;17.75;72.43;96833.41;5055442;28;20260;-78
2022/07/13 02:08:40;;;;;;;1.30;1.20;;;;;;;17.85;72.95;96829.91;5053222;28;20217;-78
2022/07/13 02:11:15;;;;;;;1.10;1.00;;;;;;;17.87;73.98;96828.53;5023873;28;20203;-78
2022/07/13 02:13:44;;;;;;;1.30;1.00;;;;;;;17.93;74.03;96829.41;5017964;28;20226;-78
2022/07/13 02:16:12;;;;;;;1.10;1.00;;;;;;;17.91;74.08;96835.13;5037307;28;20199;-78
2022/07/13 02:18:40;;;;;;;1.80;1.30;;;;;;;17.83;73.30;96832.91;5039609;28;20203;-78
2022/07/13 02:21:07;;;;;;;1.30;1.20;;;;;;;17.77;74.35;96837.53;5028037;28;20215;-78
2022/07/13 02:23:34;;;;;;;3.10;1.30;;;;;;;17.70;75.96;96842.38;5046000;28;20230;-78
2022/07/13 02:26:02;;;;;;;3.10;1.20;;;;;;;17.61;75.96;96833.00;5030906;28;20277;-78
2022/07/13 02:28:29;;;;;;;1.30;1.20;;;;;;;17.46;77.13;96826.59;5017930;28;20285;-78
2022/07/13 02:30:56;;;;;;;2.33;1.60;;;;;;;17.37;77.55;96829.81;5026859;28;20221;-78
2022/07/13 02:33:24;;;;;;;1.50;1.40;;;;;;;17.29;78.55;96824.84;5032490;28;20292;-78
2022/07/13 02:35:51;;;;;;;1.63;1.27;;;;;;;17.27;79.57;96835.19;5026221;28;20206;-78
2022/07/13 02:38:19;;;;;;;1.67;1.20;;;;;;;17.22;77.12;96832.44;5039046;28;20302;-78
2022/07/13 02:40:46;;;;;;;2.13;1.53;;;;;;;17.19;76.31;96835.69;5026341;28;20262;-78
2022/07/13 02:43:13;;;;;;;1.73;1.40;;;;;;;17.14;75.79;96829.38;5040077;28;20286;-78
2022/07/13 02:45:43;;;;;;;2.10;1.53;;;;;;;17.02;76.36;96832.25;5059187;28;20211;-78
2022/07/13 02:48:10;;;;;;;2.13;1.20;;;;;;;16.93;77.28;96826.44;5032854;28;20200;-78
2022/07/13 02:50:39;;;;;;;1.23;1.13;;;;;;;16.91;77.18;96833.25;5031993;28;20257;-78
2022/07/13 02:53:07;;;;;;;3.00;1.27;;;;;;;16.95;76.13;96829.75;5019205;28;20210;-78
2022/07/13 02:55:36;;;;;;;1.10;1.00;;;;;;;16.93;75.56;96825.63;5019953;28;20204;-78
2022/07/13 02:58:03;;;;;;;2.30;1.23;;;;;;;16.88;77.00;96833.78;5026922;28;20208;-78
2022/07/13 03:00:31;;;;;;;1.50;1.30;;;;;;;16.87;76.83;96826.66;5046132;28;20305;-78
2022/07/13 03:02:58;;;;;;;1.00;1.00;;;;;;;16.82;75.66;96819.28;5012641;28;20598;-78
2022/07/13 03:05:25;;;;;;;2.60;1.33;;;;;;;16.90;75.43;96821.53;5034085;28;20211;-78
2022/07/13 03:07:54;;;;;;;1.30;1.20;;;;;;;16.79;74.68;96824.41;5038822;28;20211;-78
2022/07/13 03:10:21;;;;;;;3.20;1.50;;;;;;;16.67;75.67;96815.56;5025865;28;20204;-77
2022/07/13 03:12:51;;;;;;;2.13;1.20;;;;;;;16.63;76.65;96827.00;5059078;28;20211;-78
2022/07/13 03:15:19;;;;;;;2.07;1.20;;;;;;;16.57;77.38;96828.00;5049677;28;20246;-78
2022/07/13 03:17:46;;;;;;;3.33;1.40;;;;;;;16.61;77.90;96817.41;5022516;28;20289;-78
2022/07/13 03:20:14;;;;;;;1.20;1.10;;;;;;;16.68;77.02;96814.47;5051383;28;20272;-78
2022/07/13 03:22:42;;;;;;;4.20;1.30;;;;;;;16.72;77.37;96824.63;5023717;28;20199;-77
2022/07/13 03:25:11;;;;;;;1.80;1.10;;;;;;;16.66;76.39;96825.66;5060406;28;20199;-78
2022/07/13 03:27:39;;;;;;;1.80;1.00;;;;;;;16.62;76.83;96813.59;5020537;28;20238;-78
2022/07/13 03:30:08;;;;;;;1.87;1.30;;;;;;;16.62;77.80;96819.06;5035510;28;20282;-78
2022/07/13 03:32:36;;;;;;;0.80;0.80;;;;;;;16.65;77.66;96821.28;5053065;28;20215;-78
2022/07/13 03:35:03;;;;;;;1.73;1.30;;;;;;;16.69;76.96;96827.84;5030347;28;20233;-78
2022/07/13 03:37:30;;;;;;;1.40;1.10;;;;;;;16.70;78.11;96834.13;5052610;28;20568;-78
2022/07/13 03:39:58;;;;;;;3.47;1.30;;;;;;;16.73;77.94;96837.19;5032796;28;20613;-78
2022/07/13 03:42:27;;;;;;;1.83;1.40;;;;;;;16.64;79.69;96845.00;5032434;28;20303;-78
2022/07/13 03:44:54;;;;;;;2.23;1.30;;;;;;;16.48;80.04;96845.88;5033864;28;20242;-78
2022/07/13 03:47:22;;;;;;;1.83;1.20;;;;;;;16.35;80.79;96839.97;5019229;28;20269;-78
2022/07/13 03:49:49;;;;;;;2.03;1.57;;;;;;;16.31;81.17;96834.22;5033049;28;20265;-78
2022/07/13 03:52:16;;;;;;;2.30;1.97;;;;;;;16.32;81.63;96835.88;5027726;28;20191;-78
2022/07/13 03:54:43;;;;;;;2.00;1.80;;;;;;;16.20;81.51;96827.00;5011781;28;20302;-78
2022/07/13 03:57:10;;;;;;;2.63;1.80;;;;;;;16.19;81.47;96830.81;5048096;28;20258;-77
2022/07/13 03:59:40;;;;;;;3.93;2.00;;;;;;;16.22;82.10;96828.41;5024400;28;20207;-78
2022/07/13 04:02:07;;;;;;;2.00;1.80;;;;;;;16.26;81.81;96828.72;5055828;28;20233;-78
2022/07/13 04:04:35;;;;;;;1.50;1.40;;;;;;;16.20;81.00;96835.19;5023491;28;20215;-78
2022/07/13 04:07:02;;;;;;;1.67;1.27;;;;;;;16.09;80.66;96826.06;5026686;28;20226;-77
2022/07/13 04:09:31;;;;;;;2.80;1.30;;;;;;;16.16;80.91;96828.59;5057476;28;20250;-77
2022/07/13 04:11:59;;;;;;;2.27;1.30;;;;;;;16.10;81.45;96821.44;5046017;28;20203;-77
2022/07/13 04:14:26;;;;;;;2.27;1.50;;;;;;;16.12;82.45;96830.19;5049093;28;20235;-77
2022/07/13 04:16:56;;;;;;;2.37;1.30;;;;;;;16.23;82.86;96829.22;5031881;28;20221;-77
2022/07/13 04:19:23;;;;;;;2.10;1.30;;;;;;;16.22;81.43;96822.97;5034180;28;20211;-77
2022/07/13 04:21:50;;;;;;;2.77;1.20;;;;;;;16.05;80.12;96827.66;5042570;28;20222;-77
2022/07/13 04:24:18;;;;;;;2.80;1.30;;;;;;;16.00;80.83;96822.13;5024618;28;20206;-77
2022/07/13 04:26:45;;;;;;;1.60;1.33;;;;;;;16.02;77.48;96819.16;5017130;28;20208;-77
2022/07/13 04:29:12;;;;;;;1.40;1.30;;;;;;;15.98;75.68;96807.94;5053038;28;20261;-77
2022/07/13 04:31:40;;;;;;;2.10;1.20;;;;;;;16.09;76.78;96819.78;5025404;28;20404;-77
2022/07/13 04:34:10;;;;;;;1.40;1.30;;;;;;;16.19;77.13;96814.47;5024178;28;20210;-77
2022/07/13 04:36:42;;;;;;;1.87;1.20;;;;;;;16.23;76.26;96810.16;5035447;28;20248;-77
2022/07/13 04:39:10;;;;;;;1.50;1.20;;;;;;;16.09;79.28;96809.72;5048847;28;20218;-77
2022/07/13 04:41:37;;;;;;;2.00;1.40;;;;;;;15.98;79.38;96802.50;5017203;28;20245;-77
2022/07/13 04:44:05;;;;;;;1.33;1.13;;;;;;;15.94;78.13;96801.34;5022470;28;20225;-77
2022/07/13 04:46:32;;;;;;;1.50;1.00;;;;;;;15.92;77.34;96794.50;5036953;28;20261;-77
2022/07/13 04:49:00;;;;;;;1.70;1.27;;;;;;;15.93;77.71;96794.25;5028633;28;20204;-77
2022/07/13 04:51:30;;;;;;;3.40;1.10;;;;;;;16.02;77.79;96789.19;5018761;28;20210;-77
2022/07/13 04:53:57;;;;;;;2.10;1.10;;;;;;;16.04;77.25;96781.59;5018371;28;20211;-77
2022/07/13 04:56:24;;;;;;;1.40;1.30;;;;;;;16.15;76.77;96791.53;5022986;28;20223;-77
2022/07/13 04:58:52;;;;;;;2.90;1.40;;;;;;;16.11;78.06;96791.22;5023122;28;20208;-77
2022/07/13 05:01:19;;;;;;;1.47;1.13;;;;;;;16.19;77.46;96795.38;5056869;28;20227;-77
2022/07/13 05:03:46;;;;;;;1.10;1.00;;;;;;;16.15;77.52;96786.09;5026215;28;20199;-77
2022/07/13 05:06:14;;;;;;;1.33;1.23;;;;;;;16.16;79.91;96790.47;5022433;28;20298;-77
2022/07/13 05:08:43;;;;;;;2.03;1.27;;;;;;;16.03;80.10;96782.66;5018182;28;20215;-77
2022/07/13 05:11:10;;;;;;;3.93;2.00;;;;;;;16.04;81.51;96784.31;5022826;28;20234;-77
2022/07/13 05:13:38;;;;;;;1.87;1.60;;;;;;;16.05;81.81;96796.84;5011535;28;20237;-76
2022/07/13 05:16:06;;;;;;;3.23;1.63;;;;;;;16.05;82.58;96799.59;5039265;28;20202;-76
2022/07/13 05:18:34;;;;;;;3.67;1.33;;;;;;;16.07;83.33;96792.00;5033581;28;20302;-77
2022/07/13 05:21:07;;;;;;;2.30;1.47;;;;;;;16.05;83.22;96792.25;5034754;28;20226;-79
2022/07/13 05:23:35;;;;;;;1.50;1.40;;;;;;;15.99;83.11;96792.44;5022507;28;20210;-78
2022/07/13 05:26:04;;;;;;;3.53;1.30;;;;;;;15.82;83.52;96793.28;5024032;28;20219;-77
2022/07/13 05:28:31;;;;;;;2.90;1.53;;;;;;;15.70;83.32;96795.31;5024198;28;20230;-77
2022/07/13 05:30:59;;;;;;;3.30;1.47;;;;;;;15.72;85.01;96798.63;5038883;28;20241;-77
2022/07/13 05:33:26;;;;;;;5.60;1.63;;;;;;;15.65;86.29;96794.44;5031896;28;20238;-79
2022/07/13 05:35:56;;;;;;;2.30;1.33;;;;;;;15.73;86.20;96794.00;5020927;28;20254;-78
2022/07/13 05:38:23;;;;;;;3.70;1.70;;;;;;;15.78;85.30;96789.44;5018977;28;20232;-79
2022/07/13 05:40:53;;;;;;;2.50;1.57;;;;;;;15.73;85.54;96781.22;5037400;28;20243;-78
2022/07/13 05:43:22;;;;;;;1.60;1.40;;;;;;;15.83;85.21;96778.59;5040280;28;20284;-78
2022/07/13 05:45:49;;;;;;;1.60;1.50;;;;;;;15.85;85.78;96770.19;5026991;28;20297;-78
2022/07/13 05:48:17;;;;;;;1.40;1.30;;;;;;;15.93;85.99;96767.03;5016993;28;20438;-77
2022/07/13 05:50:44;;;;;;;4.80;1.50;;;;;;;15.92;82.47;96776.25;5029611;28;20207;-78
2022/07/13 05:53:12;;;;;;;4.80;2.07;;;;;;;15.94;82.83;96776.00;5021091;28;20226;-78
2022/07/13 05:55:39;;;;;;;6.00;1.60;;;;;;;15.95;80.58;96774.94;5021440;28;20219;-77
2022/07/13 05:58:06;;;;;;;2.63;1.80;;;;;;;15.87;79.60;96768.88;5036484;28;20249;-78
2022/07/13 06:00:34;;;;;;;3.87;1.33;;;;;;;15.80;79.97;96768.25;5024410;28;20207;-78
2022/07/13 06:03:01;;;;;;;2.53;1.60;;;;;;;15.70;82.76;96775.44;5054935;28;20313;-77
2022/07/13 06:05:28;;;;;;;3.20;1.83;;;;;;;15.70;83.27;96780.88;5033938;28;20236;-78
2022/07/13 06:07:56;;;;;;;1.80;1.40;;;;;;;15.72;84.63;96776.84;5022312;28;20215;-78
2022/07/13 06:10:23;;;;;;;2.43;1.40;;;;;;;15.76;85.93;96786.13;5026373;28;20207;-78
2022/07/13 06:12:50;;;;;;;2.50;1.20;;;;;;;15.75;84.34;96779.03;5026661;28;20253;-78
2022/07/13 06:15:17;;;;;;;4.17;1.47;;;;;;;15.81;84.26;96785.41;5032544;28;20207;-78
2022/07/13 06:17:45;;;;;;;2.13;1.50;;;;;;;15.82;82.83;96782.41;5018869;28;20204;-78
2022/07/13 06:20:13;;;;;;;2.70;1.77;;;;;;;15.85;83.07;96784.63;5013717;28;20218;-77
2022/07/13 06:22:40;;;;;;;1.93;1.77;;;;;;;15.89;84.96;96787.69;5026055;28;20329;-78
2022/07/13 06:25:07;;;;;;;4.87;2.77;;;;;;;15.83;85.63;96781.31;5021215;28;20214;-78
2022/07/13 06:27:34;;;;;;;5.33;2.53;;;;;;;15.73;86.68;96783.94;5016643;28;20235;-78
2022/07/13 06:30:01;;;;;;;4.53;2.60;;;;;;;15.67;87.54;96779.47;5031109;28;20212;-78
2022/07/13 06:32:28;;;;;;;1.83;1.60;;;;;;;15.71;88.65;96790.69;5021385;28;20230;-78
2022/07/13 06:34:57;;;;;;;2.47;1.70;;;;;;;15.66;89.14;96791.44;5026650;28;20195;-78
2022/07/13 06:37:24;;;;;;;3.23;1.63;;;;;;;15.75;88.72;96787.22;5014493;28;20203;-77
2022/07/13 06:39:51;;;;;;;4.00;1.63;;;;;;;15.73;88.46;96783.13;5021421;28;20195;-78
2022/07/13 06:42:18;;;;;;;2.97;1.80;;;;;;;15.72;88.72;96793.19;5028700;28;20219;-78
2022/07/13 06:44:49;;;;;;;3.13;2.47;;;;;;;15.68;89.15;96783.84;5017960;28;20297;-78
2022/07/13 06:47:16;;;;;;;2.50;2.30;;;;;;;15.77;89.58;96785.06;5020621;28;20211;-77
2022/07/13 06:49:43;;;;;;;3.70;2.30;;;;;;;15.82;89.14;96793.28;5050276;28;20234;-77
2022/07/13 06:52:11;;;;;;;2.83;2.00;;;;;;;15.87;88.39;96793.38;5019380;28;20294;-77
2022/07/13 06:54:38;;;;;;;2.70;2.00;;;;;;;15.83;87.30;96791.41;5055381;28;20257;-78
2022/07/13 06:57:05;;;;;;;2.43;2.20;;;;;;;15.84;87.24;96802.03;5031043;28;20250;-78
2022/07/13 06:59:33;;;;;;;3.63;3.33;;;;;;;15.84;87.62;96796.59;5015373;28;20249;-78
2022/07/13 07:02:00;;;;;;;5.00;4.33;;;;;;;15.71;85.65;96783.38;5012795;28;20226;-77
2022/07/13 07:04:27;;;;;;;4.37;4.00;;;;;;;15.76;87.01;96790.75;5026192;28;20259;-77
2022/07/13 07:06:54;;;;;;;3.67;2.37;;;;;;;15.81;86.41;96794.41;5026314;28;20206;-77
2022/07/13 07:09:23;;;;;;;1.83;1.23;;;;;;;15.91;83.29;96796.41;5017893;28;20231;-77
2022/07/13 07:11:50;;;;;;;1.30;1.20;;;;;;;15.93;83.14;96790.69;5031194;28;20203;-77
2022/07/13 07:14:17;;;;;;;2.27;1.50;;;;;;;15.98;84.69;96796.22;5016788;28;20349;-77
2022/07/13 07:16:44;;;;;;;1.60;1.50;;;;;;;16.02;84.36;96783.75;5033921;28;20252;-77
2022/07/13 07:19:11;;;;;;;2.37;1.80;;;;;;;16.07;86.74;96783.81;5016987;28;20202;-77
2022/07/13 07:21:40;;;;;;;1.47;1.37;;;;;;;16.36;85.76;96790.69;5012599;28;20211;-77
2022/07/13 07:24:07;;;;;;;1.93;1.23;;;;;;;16.95;80.81;96790.72;5049077;28;20207;-77
2022/07/13 07:26:36;;;;;;;1.73;1.40;;;;;;;17.68;79.29;96795.41;5014198;28;20219;-77
2022/07/13 07:29:03;;;;;;;1.07;0.97;;;;;;;18.41;73.92;96798.16;5027558;28;20233;-77
2022/07/13 07:31:30;;;;;;;1.20;1.10;;;;;;;18.80;65.71;96802.09;5025588;28;20269;-78
2022/07/13 07:33:57;;;;;;;1.17;0.80;;;;;;;19.16;65.37;96799.41;5026182;28;20207;-78
2022/07/13 07:36:24;;;;;;;1.40;0.93;;;;;;;19.41;60.93;96793.09;5035872;28;20229;-78
2022/07/13 07:38:51;;;;;;;1.40;1.20;;;;;;;19.81;60.50;96784.03;5024567;28;20206;-78
2022/07/13 07:41:18;;;;;;;1.50;1.00;;;;;;;20.21;56.40;96783.88;5022949;28;20203;-78
2022/07/13 07:43:46;;;;;;;2.63;1.10;;;;;;;20.66;56.42;96776.53;5040360;28;20508;-78
2022/07/13 07:46:13;;;;;;;1.48;1.00;;;;;;;21.14;55.02;96767.41;5029833;28;20200;-78
2022/07/13 07:48:41;;;;;;;2.58;1.15;;;;;;;21.45;51.75;96761.66;5030574;28;20203;-78
2022/07/13 07:51:08;;;;;;;1.83;1.27;;;;;;;21.43;50.90;96761.97;5018737;28;20210;-78
2022/07/13 07:53:35;;;;;;;2.35;1.00;;;;;;;21.43;50.26;96766.63;5009019;28;20207;-78
2022/07/13 07:56:02;;;;;;;1.20;0.85;;;;;;;21.52;49.85;96764.91;5013386;28;20222;-78
2022/07/13 07:58:29;;;;;;;1.10;1.00;;;;;;;21.64;50.16;96759.00;5024251;28;20206;-78
2022/07/13 08:00:58;;;;;;;1.60;1.38;;;;;;;22.00;49.45;96753.97;5025999;28;20253;-78
2022/07/13 08:03:25;;;;;;;2.60;1.10;;;;;;;22.26;47.23;96752.53;5023757;28;20301;-78
2022/07/13 08:05:52;;;;;;;0.98;0.90;;;;;;;22.42;47.14;96761.41;5032452;28;20218;-78
2022/07/13 08:08:19;;;;;;;1.10;1.00;;;;;;;22.56;45.44;96752.09;5021016;28;20214;-78
2022/07/13 08:10:47;;;;;;;1.25;1.05;;;;;;;22.81;44.84;96752.88;5020824;28;20208;-78
2022/07/13 08:13:15;;;;;;;0.90;0.90;;;;;;;23.04;42.91;96742.91;5024431;28;20257;-78
2022/07/13 08:15:42;;;;;;;2.30;1.20;;;;;;;23.20;43.68;96756.13;5031632;28;20207;-78
2022/07/13 08:18:10;;;;;;;0.95;0.85;;;;;;;23.52;43.85;96749.81;5049413;28;20199;-78
2022/07/13 08:20:37;;;;;;;1.50;1.10;;;;;;;23.75;43.62;96735.03;5055467;28;20211;-78
2022/07/13 08:23:50;;;;;;;4.63;1.30;;;;;;;23.86;44.49;96738.41;5023440;28;20302;-78
2022/07/13 08:25:52;;;;;;;4.97;1.50;;;;;;;24.10;41.42;96741.78;5019727;28;20218;-78
2022/07/13 08:28:19;;;;;;;4.30;2.03;;;;;;;24.26;38.83;96741.47;5020712;28;20227;-78
2022/07/13 08:30:47;;;;;;;4.47;1.63;;;;;;;24.38;38.26;96742.59;5037735;28;20279;-78
2022/07/13 08:33:15;;;;;;;3.58;1.48;;;;;;;24.58;39.14;96732.25;5019615;28;20218;-78
2022/07/13 08:38:38;;;;;;;2.15;1.40;;;;;;;24.89;37.78;96745.03;5033508;28;20206;-78
2022/07/13 08:41:05;;;;;;;2.63;1.40;;;;;;;24.89;40.33;96742.28;5053953;28;20219;-78
2022/07/13 08:43:33;;;;;;;3.42;1.75;;;;;;;25.07;39.54;96747.97;5026290;28;20230;-78
2022/07/13 08:46:04;;;;;;;2.13;1.30;;;;;;;25.19;40.18;96745.44;5016790;28;20215;-78
2022/07/13 08:48:38;;;;;;;2.90;1.55;;;;;;;25.30;39.08;96752.34;5017867;28;20199;-78
2022/07/13 08:51:06;;;;;;;4.15;1.50;;;;;;;25.30;38.87;96749.59;5016181;28;20226;-78
2022/07/13 08:53:34;;;;;;;2.10;1.60;;;;;;;25.39;39.63;96755.19;5023768;28;20215;-78
2022/07/13 08:56:01;;;;;;;3.30;1.50;;;;;;;25.14;39.94;96751.09;5025769;28;20237;-78
2022/07/13 08:58:30;;;;;;;5.00;1.80;;;;;;;25.26;40.71;96754.13;5024131;28;20199;-77
2022/07/13 09:00:57;;;;;;;2.92;1.67;;;;;;;25.52;41.89;96760.63;5014971;28;20200;-78
2022/07/13 09:03:24;;;;;;;2.42;1.38;;;;;;;25.34;42.11;96755.31;5013282;28;20226;-78
2022/07/13 09:05:53;;;;;;;5.80;1.70;;;;;;;25.41;39.49;96753.75;5018627;28;20211;-78
2022/07/13 09:08:21;;;;;;;3.10;1.48;;;;;;;25.59;39.01;96766.56;5026882;28;20217;-78
2022/07/13 09:10:53;;;;;;;1.48;1.38;;;;;;;25.76;39.00;96763.09;5024550;28;20199;-78
2022/07/13 09:13:38;;;;;;;3.28;1.40;;;;;;;25.77;38.93;96769.44;5059678;28;20199;-78
2022/07/13 09:16:19;;;;;;;1.63;1.27;;;;;;;25.94;39.67;96772.28;5015543;28;20299;-77
2022/07/13 09:18:48;;;;;;;3.78;1.67;;;;;;;25.84;38.87;96773.38;5017383;28;20210;-78
2022/07/13 09:21:19;;;;;;;2.03;1.17;;;;;;;25.78;40.36;96774.63;5013106;28;20214;-78
2022/07/13 09:23:50;;;;;;;1.30;1.20;;;;;;;26.00;40.57;96776.53;5017747;28;20263;-78
2022/07/13 09:26:18;;;;;;;2.03;1.17;;;;;;;26.00;39.91;96782.06;5011538;28;20281;-78
2022/07/13 09:28:47;;;;;;;1.63;1.15;;;;;;;25.99;38.57;96792.31;5043854;28;20253;-78
2022/07/13 09:31:15;;;;;;;3.08;1.50;;;;;;;25.99;38.45;96792.31;5019338;28;20462;-78
2022/07/13 09:33:44;;;;;;;3.75;1.42;;;;;;;26.13;38.57;96794.97;5024769;28;20207;-78
2022/07/13 09:36:13;;;;;;;1.40;1.30;;;;;;;26.40;39.21;96795.94;5045101;28;20208;-78
2022/07/13 09:38:43;;;;;;;1.80;1.50;;;;;;;26.52;40.22;96801.69;5025846;28;20195;-78
2022/07/13 09:41:22;;;;;;;3.33;1.50;;;;;;;26.60;41.67;96798.13;5023126;28;20297;-78
2022/07/13 09:46:56;;;;;;;3.15;1.38;;;;;;;26.44;41.21;96802.47;5033757;28;20247;-78
2022/07/13 09:49:35;;;;;;;1.42;1.30;;;;;;;26.34;41.12;96798.03;5041591;28;20204;-79
2022/07/13 09:52:07;;;;;;;5.57;1.25;;;;;;;26.34;39.55;96795.28;5025230;28;20237;-79
2022/07/13 09:54:37;;;;;;;1.52;1.30;;;;;;;26.32;40.53;96795.59;5019473;28;20305;-79
2022/07/13 09:57:07;;;;;;;1.40;1.30;;;;;;;26.44;40.10;96808.81;5022317;28;20228;-79
2022/07/13 09:59:36;;;;;;;5.03;1.42;;;;;;;26.45;41.66;96806.88;5032898;28;20214;-79
2022/07/13 10:02:07;;;;;;;3.75;1.50;;;;;;;26.43;42.64;96809.13;5056647;28;20202;-79
2022/07/13 10:04:36;;;;;;;2.63;1.55;;;;;;;26.42;43.52;96805.56;5025058;28;20231;-79
2022/07/13 10:07:03;;;;;;;2.88;1.40;;;;;;;26.24;43.27;96804.63;5010782;28;20222;-79
2022/07/13 10:09:31;;;;;;;2.25;1.30;;;;;;;26.32;43.35;96809.44;5036056;28;20203;-79
2022/07/13 10:12:00;;;;;;;3.92;1.58;;;;;;;26.41;42.95;96805.88;5024160;28;20207;-79
2022/07/13 10:14:28;;;;;;;2.97;1.90;;;;;;;26.49;43.83;96805.09;5011159;28;20290;-79
2022/07/13 10:16:59;;;;;;;1.77;1.40;;;;;;;26.54;44.10;96802.97;5055295;28;20224;-79
2022/07/13 10:19:27;;;;;;;2.08;1.40;;;;;;;26.56;42.97;96805.41;5048184;28;20207;-79
2022/07/13 10:22:06;;;;;;;2.80;1.70;;;;;;;26.88;42.59;96813.31;5022756;28;20203;-79
2022/07/13 10:24:34;;;;;;;3.03;1.70;;;;;;;26.91;42.44;96807.16;5020400;28;20276;-79
2022/07/13 10:27:22;;;;;;;1.50;1.30;;;;;;;27.03;42.60;96817.63;5020931;28;20227;-79
2022/07/13 10:29:50;;;;;;;2.35;1.60;;;;;;;27.04;43.89;96808.97;5021817;28;20211;-79
2022/07/13 10:32:21;;;;;;;2.45;1.50;;;;;;;27.19;43.26;96809.63;5023226;28;20215;-79
2022/07/13 10:34:53;;;;;;;1.60;1.30;;;;;;;27.30;42.92;96799.84;5054880;28;20202;-79
2022/07/13 10:37:21;;;;;;;2.17;1.45;;;;;;;27.47;43.37;96808.16;5047945;28;20210;-79
2022/07/13 10:40:11;;;;;;;2.13;1.73;;;;;;;27.51;42.29;96809.13;5022511;28;20207;-79
2022/07/13 10:43:23;;;;;;;1.90;1.35;;;;;;;27.44;42.83;96806.03;5050425;28;20220;-79
2022/07/13 10:45:55;;;;;;;1.80;1.42;;;;;;;27.59;41.25;96808.31;5010311;28;20302;-79
2022/07/13 10:48:43;;;;;;;4.22;2.00;;;;;;;27.79;41.13;96799.31;5023560;28;20292;-79
2022/07/13 10:51:21;;;;;;;2.25;1.58;;;;;;;27.85;41.51;96800.78;5059650;28;20217;-79
2022/07/13 10:54:10;;;;;;;1.88;1.60;;;;;;;28.05;40.40;96795.66;5057002;28;20211;-79
2022/07/13 10:56:58;;;;;;;1.65;1.40;;;;;;;28.21;40.45;96788.44;5029939;28;20238;-79
2022/07/13 10:59:48;;;;;;;2.22;1.50;;;;;;;28.39;38.88;96786.41;5052584;28;20268;-79
2022/07/13 11:02:45;;;;;;;1.98;1.42;;;;;;;28.39;38.55;96784.44;5033685;28;20203;-79
2022/07/13 11:05:13;;;;;;;2.75;1.50;;;;;;;28.32;38.96;96781.38;5061079;28;20217;-79
2022/07/13 11:07:42;;;;;;;1.55;1.40;;;;;;;28.31;39.77;96782.53;5024330;28;20191;-79
2022/07/13 11:10:21;;;;;;;3.60;1.50;;;;;;;28.47;38.94;96780.81;5023196;28;20684;-79
2022/07/13 11:13:03;;;;;;;3.60;1.70;;;;;;;28.61;39.45;96775.81;5026091;28;20300;-79
2022/07/13 11:15:48;;;;;;;2.88;1.40;;;;;;;28.68;38.80;96774.44;5056745;28;20207;-81
2022/07/13 11:18:31;;;;;;;5.53;1.42;;;;;;;28.85;37.24;96771.59;5059480;28;20217;-81
2022/07/13 11:21:01;;;;;;;1.60;1.50;;;;;;;29.01;37.54;96763.50;5044799;28;20254;-82
2022/07/13 11:26:35;;;;;;;2.25;1.60;;;;;;;29.27;36.99;96764.88;5043956;28;20208;-81
2022/07/13 11:29:15;;;;;;;2.45;1.58;;;;;;;29.17;36.95;96758.94;5050711;28;20218;-81
2022/07/13 11:31:42;;;;;;;2.50;1.70;;;;;;;29.32;37.08;96759.13;5045962;28;20270;-80
2022/07/13 11:34:11;;;;;;;1.98;1.40;;;;;;;29.38;35.78;96759.75;5014471;28;20207;-80
2022/07/13 11:36:41;;;;;;;1.77;1.40;;;;;;;29.43;35.27;96762.34;5046521;28;20217;-81
2022/07/13 11:39:23;;;;;;;1.98;1.42;;;;;;;29.43;37.26;96753.19;5019346;28;20211;-80
2022/07/13 11:41:51;;;;;;;2.83;1.30;;;;;;;29.38;37.66;96750.59;5025910;28;20239;-80
2022/07/13 11:44:21;;;;;;;3.72;1.55;;;;;;;29.60;35.32;96748.22;5046148;28;20242;-79
2022/07/13 11:46:49;;;;;;;1.80;1.60;;;;;;;29.61;35.20;96741.50;5022716;28;20230;-79
2022/07/13 11:49:18;;;;;;;4.07;1.67;;;;;;;29.64;35.18;96738.03;5022258;28;20211;-79
2022/07/13 11:51:46;;;;;;;1.92;1.70;;;;;;;29.87;35.72;96734.84;5030261;28;20234;-79